Time;durP1;ratioP1;P1;durP2;ratioP2;P2;SDS_P1;SDS_P2;PMS_P1;PMS_P2;Temp;Humidity;BMP_temperature;BMP_pressure;BME280_temperature;BME280_humidity;BME280_pressure;Samples;Min_cycle;Max_cycle;Signal;HPM_P1;HPM_P2
2023/04/03 00:01:09;;;;;;;15.60;10.50;;;;;;;0.61;100.00;102964.53;4968312;28;20387;-79
2023/04/03 00:03:36;;;;;;;15.63;10.27;;;;;;;0.58;100.00;102965.25;4954926;28;20407;-79
2023/04/03 00:06:02;;;;;;;12.65;10.35;;;;;;;0.55;100.00;102970.22;4954136;28;20035;-80
2023/04/03 00:08:30;;;;;;;15.73;9.73;;;;;;;0.52;100.00;102969.19;4954704;28;20031;-80
2023/04/03 00:10:55;;;;;;;12.40;9.90;;;;;;;0.49;100.00;102966.47;4956663;28;20428;-79
2023/04/03 00:13:20;;;;;;;14.77;10.05;;;;;;;0.38;100.00;102959.09;4956561;28;20029;-79
2023/04/03 00:15:46;;;;;;;13.23;10.55;;;;;;;0.38;100.00;102963.34;4965156;28;20023;-79
2023/04/03 00:18:11;;;;;;;16.38;9.70;;;;;;;0.37;100.00;102969.28;4954779;28;20030;-79
2023/04/03 00:20:37;;;;;;;14.68;10.15;;;;;;;0.39;100.00;102976.28;4956616;28;20027;-79
2023/04/03 00:23:02;;;;;;;16.02;9.70;;;;;;;0.36;100.00;102972.63;4965707;28;20375;-79
2023/04/03 00:25:27;;;;;;;13.43;10.25;;;;;;;0.37;100.00;102988.13;4954445;28;20074;-79
2023/04/03 00:27:53;;;;;;;14.18;10.82;;;;;;;0.28;100.00;102972.25;4953670;28;20506;-79
2023/04/03 00:30:21;;;;;;;13.27;10.18;;;;;;;0.21;100.00;102970.16;4966603;28;20464;-79
2023/04/03 00:32:51;;;;;;;14.70;10.57;;;;;;;0.28;100.00;102995.34;4955212;28;20037;-79
2023/04/03 00:35:17;;;;;;;14.70;10.38;;;;;;;0.30;100.00;102987.75;4953686;28;20529;-79
2023/04/03 00:37:43;;;;;;;14.77;10.50;;;;;;;0.32;100.00;102991.25;4953809;28;20069;-79
2023/04/03 00:40:10;;;;;;;15.68;10.30;;;;;;;0.29;100.00;102988.53;4954446;28;20064;-79
2023/04/03 00:42:40;;;;;;;14.23;10.05;;;;;;;0.20;100.00;102978.69;4953168;28;20082;-79
2023/04/03 00:45:06;;;;;;;12.80;9.95;;;;;;;0.21;100.00;102991.56;4954367;28;20046;-79
2023/04/03 00:47:31;;;;;;;12.88;10.02;;;;;;;0.23;100.00;102995.13;4964732;28;20602;-79
2023/04/03 00:49:59;;;;;;;15.10;9.77;;;;;;;0.25;100.00;102999.44;4957183;28;20027;-79
2023/04/03 00:52:29;;;;;;;13.07;9.82;;;;;;;0.21;100.00;102998.38;4960848;28;20106;-79
2023/04/03 00:55:00;;;;;;;14.07;10.25;;;;;;;0.14;100.00;102998.88;4967168;28;20038;-79
2023/04/03 00:57:26;;;;;;;11.68;9.85;;;;;;;0.08;100.00;102983.16;4954545;28;20055;-79
2023/04/03 00:59:57;;;;;;;13.70;9.60;;;;;;;0.16;100.00;102998.16;4959646;28;20118;-79
2023/04/03 01:02:22;;;;;;;15.25;10.57;;;;;;;0.03;100.00;102980.31;4958239;28;20035;-79
2023/04/03 01:04:47;;;;;;;14.43;9.77;;;;;;;0.05;100.00;103000.94;4955046;28;20106;-79
2023/04/03 01:07:26;;;;;;;15.57;10.10;;;;;;;0.02;100.00;102993.94;4957958;28;20031;-79
2023/04/03 01:09:57;;;;;;;12.85;9.45;;;;;;;-0.07;100.00;102978.06;4956589;28;20047;-79
2023/04/03 01:12:28;;;;;;;12.75;9.85;;;;;;;-0.10;100.00;102983.94;4971757;28;20062;-79
2023/04/03 01:14:59;;;;;;;15.00;10.05;;;;;;;-0.06;100.00;102993.53;4957955;28;20039;-79
2023/04/03 01:17:44;;;;;;;15.73;10.52;;;;;;;-0.06;100.00;103000.34;4957139;28;20471;-79
2023/04/03 01:20:31;;;;;;;15.13;10.18;;;;;;;-0.08;100.00;102999.38;4972601;28;20012;-79
2023/04/03 01:23:12;;;;;;;14.90;10.02;;;;;;;-0.13;100.00;102991.44;4965387;28;20585;-79
2023/04/03 01:25:43;;;;;;;16.02;10.23;;;;;;;-0.12;100.00;102998.34;4956900;28;20467;-79
2023/04/03 01:28:12;;;;;;;15.23;11.00;;;;;;;-0.20;100.00;102991.88;4969329;28;20038;-79
2023/04/03 01:30:53;;;;;;;14.93;10.18;;;;;;;-0.15;100.00;103002.41;4958922;28;20027;-79
2023/04/03 01:33:19;;;;;;;14.65;10.30;;;;;;;-0.20;100.00;102986.75;4962837;28;20086;-79
2023/04/03 01:35:44;;;;;;;16.23;11.38;;;;;;;-0.24;100.00;102988.28;4961372;28;20023;-79
2023/04/03 01:38:10;;;;;;;16.20;10.32;;;;;;;-0.19;100.00;103000.50;4971730;28;20035;-79
2023/04/03 01:40:35;;;;;;;16.33;11.07;;;;;;;-0.17;100.00;103014.25;4959257;28;20035;-79
2023/04/03 01:43:01;;;;;;;16.63;10.93;;;;;;;-0.21;100.00;103008.06;4968508;28;20106;-79
2023/04/03 01:45:26;;;;;;;15.23;10.45;;;;;;;-0.25;100.00;103006.16;4964210;28;20066;-79
2023/04/03 01:47:51;;;;;;;15.05;11.30;;;;;;;-0.27;100.00;102995.78;4957121;28;20364;-79
2023/04/03 01:50:17;;;;;;;15.57;10.43;;;;;;;-0.25;100.00;102996.78;4957313;28;20038;-79
2023/04/03 01:52:42;;;;;;;16.52;10.45;;;;;;;-0.32;100.00;102980.97;4960307;28;20022;-79
2023/04/03 01:55:08;;;;;;;15.38;10.48;;;;;;;-0.29;100.00;103005.09;4976611;28;20031;-79
2023/04/03 01:57:33;;;;;;;14.00;10.23;;;;;;;-0.36;100.00;102992.75;4974004;28;20046;-80
2023/04/03 01:59:58;;;;;;;17.35;11.38;;;;;;;-0.33;100.00;102997.13;4956159;28;20142;-79
2023/04/03 02:02:24;;;;;;;15.35;11.10;;;;;;;-0.29;100.00;102997.41;4957278;28;20015;-79
2023/04/03 02:04:49;;;;;;;15.80;11.20;;;;;;;-0.35;100.00;102998.75;4956300;28;20367;-79
2023/04/03 02:07:15;;;;;;;16.95;10.73;;;;;;;-0.31;100.00;103001.56;4968255;28;20505;-79
2023/04/03 02:09:40;;;;;;;15.63;10.43;;;;;;;-0.34;100.00;103006.50;4960155;28;20066;-79
2023/04/03 02:12:06;;;;;;;13.50;10.63;;;;;;;-0.40;100.00;103001.03;4962052;28;20028;-79
2023/04/03 02:14:31;;;;;;;15.77;10.60;;;;;;;-0.38;100.00;103009.72;4967961;28;20038;-79
2023/04/03 02:16:56;;;;;;;15.35;11.68;;;;;;;-0.39;100.00;103007.94;4955186;28;20034;-79
2023/04/03 02:19:22;;;;;;;14.88;10.80;;;;;;;-0.41;100.00;103008.66;4962183;28;20105;-79
2023/04/03 02:21:50;;;;;;;14.23;10.73;;;;;;;-0.43;100.00;103007.69;4960374;28;20043;-79
2023/04/03 02:24:16;;;;;;;13.82;10.45;;;;;;;-0.51;100.00;103003.00;4967838;28;20034;-79
2023/04/03 02:26:41;;;;;;;12.23;10.20;;;;;;;-0.42;100.00;103012.03;4964756;28;20124;-79
2023/04/03 02:29:06;;;;;;;14.90;10.32;;;;;;;-0.47;100.00;103009.19;4970719;28;20031;-79
2023/04/03 02:31:31;;;;;;;17.60;10.35;;;;;;;-0.45;100.00;103012.72;4972940;28;20042;-79
2023/04/03 02:33:57;;;;;;;13.75;10.02;;;;;;;-0.47;100.00;103015.19;4955478;28;20039;-79
2023/04/03 02:36:22;;;;;;;15.25;10.77;;;;;;;-0.56;100.00;103006.97;4958751;28;20031;-79
2023/04/03 02:38:48;;;;;;;13.18;10.05;;;;;;;-0.58;100.00;103005.16;4957575;28;20023;-79
2023/04/03 02:41:13;;;;;;;12.48;10.05;;;;;;;-0.62;100.00;103008.31;4964922;28;20506;-79
2023/04/03 02:43:39;;;;;;;15.00;10.07;;;;;;;-0.58;100.00;103025.66;4956000;28;20035;-79
2023/04/03 02:46:05;;;;;;;16.35;10.23;;;;;;;-0.58;100.00;103026.53;4956598;28;20371;-79
2023/04/03 02:48:31;;;;;;;12.65;10.25;;;;;;;-0.59;100.00;103034.09;4955099;28;20035;-79
2023/04/03 02:50:56;;;;;;;13.55;10.00;;;;;;;-0.60;100.00;103030.66;4962247;28;20026;-79
2023/04/03 02:53:22;;;;;;;12.15;8.82;;;;;;;-0.84;100.00;102994.28;4963236;28;20039;-79
2023/04/03 02:55:48;;;;;;;15.43;9.75;;;;;;;-0.65;100.00;103033.78;4955249;28;20046;-79
2023/04/03 02:58:14;;;;;;;16.42;10.15;;;;;;;-0.73;100.00;103025.63;4955945;28;20521;-79
2023/04/03 03:00:39;;;;;;;12.27;8.80;;;;;;;-0.68;100.00;103033.59;4955379;28;20043;-80
2023/04/03 03:03:05;;;;;;;12.95;9.35;;;;;;;-0.66;100.00;103026.88;4955113;28;20106;-79
2023/04/03 03:05:30;;;;;;;17.48;10.07;;;;;;;-0.64;100.00;103030.41;4955908;28;20034;-79
2023/04/03 03:07:56;;;;;;;13.07;8.98;;;;;;;-0.63;100.00;103032.16;4955443;28;20462;-79
2023/04/03 03:10:22;;;;;;;15.68;9.70;;;;;;;-0.63;100.00;103033.06;4955782;28;20042;-79
2023/04/03 03:12:47;;;;;;;14.23;9.02;;;;;;;-0.71;100.00;103022.38;4955397;28;20027;-79
2023/04/03 03:15:13;;;;;;;14.02;9.32;;;;;;;-0.71;100.00;103034.31;4955258;28;20070;-79
2023/04/03 03:17:38;;;;;;;13.63;9.93;;;;;;;-0.76;100.00;103028.91;4961032;28;20501;-79
2023/04/03 03:20:07;;;;;;;12.50;9.02;;;;;;;-0.76;100.00;103028.91;4973424;28;20030;-79
2023/04/03 03:22:36;;;;;;;11.75;8.70;;;;;;;-0.79;100.00;103028.72;4973938;28;20122;-79
2023/04/03 03:25:02;;;;;;;13.13;9.00;;;;;;;-0.91;100.00;103015.22;4958479;28;20019;-79
2023/04/03 03:27:27;;;;;;;12.77;8.70;;;;;;;-0.86;100.00;103030.84;4956038;28;20384;-79
2023/04/03 03:29:52;;;;;;;11.07;9.13;;;;;;;-0.87;100.00;103040.22;4959453;28;20031;-79
2023/04/03 03:32:18;;;;;;;12.38;8.27;;;;;;;-0.90;100.00;103031.47;4955269;28;20114;-79
2023/04/03 03:34:43;;;;;;;11.18;8.50;;;;;;;-0.88;100.00;103035.88;4951840;28;20048;-79
2023/04/03 03:37:08;;;;;;;13.77;8.75;;;;;;;-0.96;100.00;103026.88;4953805;28;20151;-79
2023/04/03 03:39:34;;;;;;;12.07;8.25;;;;;;;-0.91;100.00;103043.41;4961277;28;20039;-79
2023/04/03 03:41:59;;;;;;;14.32;7.95;;;;;;;-0.93;100.00;103042.41;4969707;28;20106;-79
2023/04/03 03:44:25;;;;;;;13.07;8.27;;;;;;;-0.94;100.00;103040.66;4953490;28;20031;-79
2023/04/03 03:46:50;;;;;;;13.90;9.07;;;;;;;-0.97;100.00;103045.59;4966478;28;20027;-79
2023/04/03 03:49:15;;;;;;;10.98;7.90;;;;;;;-0.93;100.00;103057.78;4955133;28;20476;-79
2023/04/03 03:51:41;;;;;;;13.70;8.07;;;;;;;-0.93;100.00;103051.78;4960697;28;20031;-79
2023/04/03 03:54:06;;;;;;;9.27;8.10;;;;;;;-0.96;100.00;103058.47;4954896;28;20027;-79
2023/04/03 03:56:34;;;;;;;9.98;7.63;;;;;;;-1.04;100.00;103046.91;4954665;28;20027;-79
2023/04/03 03:58:59;;;;;;;13.77;7.88;;;;;;;-1.06;100.00;103039.91;4954152;28;20061;-80
2023/04/03 04:01:25;;;;;;;10.88;7.57;;;;;;;-0.97;100.00;103056.72;4954738;28;20058;-79
2023/04/03 04:03:50;;;;;;;11.90;7.60;;;;;;;-0.98;100.00;103059.19;4969986;28;20443;-80
2023/04/03 04:06:16;;;;;;;11.10;6.97;;;;;;;-1.10;100.00;103040.53;4954400;28;20514;-79
2023/04/03 04:08:42;;;;;;;10.40;6.97;;;;;;;-1.00;100.00;103065.88;4954530;28;20110;-79
2023/04/03 04:11:07;;;;;;;10.45;7.45;;;;;;;-1.04;100.00;103057.16;4954520;28;20094;-79
2023/04/03 04:13:33;;;;;;;11.80;7.07;;;;;;;-1.10;100.00;103050.78;4953921;28;20082;-79
2023/04/03 04:16:00;;;;;;;10.25;6.80;;;;;;;-1.07;100.00;103067.19;4954846;28;20134;-79
2023/04/03 04:18:28;;;;;;;14.43;7.45;;;;;;;-1.10;100.00;103061.03;4953691;28;20025;-79
2023/04/03 04:20:53;;;;;;;10.40;7.18;;;;;;;-1.22;100.00;103049.22;4954642;28;20031;-79
2023/04/03 04:23:19;;;;;;;10.40;7.15;;;;;;;-1.19;100.00;103043.44;4954675;28;20090;-79
2023/04/03 04:25:48;;;;;;;10.23;6.45;;;;;;;-1.11;100.00;103066.91;4953649;28;20455;-79
2023/04/03 04:28:14;;;;;;;10.85;6.45;;;;;;;-1.14;100.00;103064.19;4968090;28;20039;-79
2023/04/03 04:30:40;;;;;;;10.07;6.65;;;;;;;-1.15;100.00;103060.72;4954635;28;20070;-79
2023/04/03 04:33:06;;;;;;;11.35;6.63;;;;;;;-1.24;100.00;103045.72;4953988;28;20023;-79
2023/04/03 04:35:32;;;;;;;10.35;6.60;;;;;;;-1.17;100.00;103064.88;4959837;28;20033;-79
2023/04/03 04:37:57;;;;;;;9.57;6.47;;;;;;;-1.18;100.00;103060.53;4973826;28;20034;-79
2023/04/03 04:40:23;;;;;;;9.80;6.18;;;;;;;-1.33;100.00;103034.94;4955416;28;20380;-79
2023/04/03 04:42:48;;;;;;;10.55;6.35;;;;;;;-1.41;100.00;103028.44;4954217;28;20028;-79
2023/04/03 04:45:14;;;;;;;12.30;6.28;;;;;;;-1.25;100.00;103061.84;4955207;28;20502;-79
2023/04/03 04:47:40;;;;;;;13.40;6.70;;;;;;;-1.29;100.00;103062.47;4958943;28;20027;-79
2023/04/03 04:50:06;;;;;;;9.68;7.50;;;;;;;-1.26;100.00;103072.88;4954016;28;20460;-79
2023/04/03 04:52:31;;;;;;;14.23;6.60;;;;;;;-1.32;100.00;103061.41;4953083;28;20479;-80
2023/04/03 04:54:57;;;;;;;12.40;6.18;;;;;;;-1.23;100.00;103087.56;4964626;28;20486;-79
2023/04/03 04:57:22;;;;;;;13.98;6.50;;;;;;;-1.24;100.00;103084.13;4963434;28;20063;-79
2023/04/03 04:59:47;;;;;;;12.75;6.35;;;;;;;-1.27;100.00;103081.38;4960045;28;20117;-79
2023/04/03 05:02:13;;;;;;;9.13;6.07;;;;;;;-1.24;100.00;103085.78;4971545;28;20042;-79
2023/04/03 05:04:38;;;;;;;9.23;5.93;;;;;;;-1.26;100.00;103072.00;4959837;28;20023;-79
2023/04/03 05:07:03;;;;;;;10.13;5.47;;;;;;;-1.29;100.00;103079.50;4965246;28;20041;-79
2023/04/03 05:09:29;;;;;;;8.80;5.72;;;;;;;-1.27;100.00;103085.59;4954148;28;20066;-79
2023/04/03 05:11:54;;;;;;;8.43;5.55;;;;;;;-1.27;100.00;103078.81;4965870;28;20027;-79
2023/04/03 05:14:19;;;;;;;9.98;5.82;;;;;;;-1.32;100.00;103066.50;4956946;28;20074;-79
2023/04/03 05:16:45;;;;;;;7.10;5.43;;;;;;;-1.20;100.00;103088.63;4963269;28;20030;-79
2023/04/03 05:19:11;;;;;;;8.73;5.72;;;;;;;-1.19;100.00;103090.38;4963267;28;20073;-79
2023/04/03 05:21:36;;;;;;;9.45;5.70;;;;;;;-1.16;100.00;103092.25;4955423;28;20046;-79
2023/04/03 05:24:02;;;;;;;10.93;6.22;;;;;;;-1.15;100.00;103085.44;4953544;28;20016;-79
2023/04/03 05:26:29;;;;;;;9.25;5.35;;;;;;;-1.08;100.00;103096.16;4967378;28;20027;-79
2023/04/03 05:28:55;;;;;;;8.35;5.00;;;;;;;-1.06;100.00;103093.69;4964214;28;20024;-79
2023/04/03 05:31:20;;;;;;;9.27;4.93;;;;;;;-0.98;100.00;103100.16;4953951;28;20087;-79
2023/04/03 05:33:49;;;;;;;10.32;5.00;;;;;;;-0.97;100.00;103101.91;4953780;28;20023;-79
2023/04/03 05:36:15;;;;;;;10.82;5.80;;;;;;;-0.99;100.00;103096.69;4953564;28;20121;-79
2023/04/03 05:38:40;;;;;;;10.10;6.45;;;;;;;-0.97;100.00;103096.81;4953522;28;20514;-79
2023/04/03 05:41:05;;;;;;;10.27;6.15;;;;;;;-1.00;100.00;103091.50;4963107;28;20050;-79
2023/04/03 05:43:31;;;;;;;11.45;6.00;;;;;;;-0.92;100.00;103097.94;4957162;28;20023;-79
2023/04/03 05:45:56;;;;;;;7.93;5.20;;;;;;;-0.89;100.00;103098.13;4953576;28;20027;-79
2023/04/03 05:48:21;;;;;;;7.43;5.03;;;;;;;-0.81;100.00;103114.84;4953828;28;20034;-79
2023/04/03 05:50:47;;;;;;;8.57;4.88;;;;;;;-0.81;100.00;103107.16;4952561;28;20483;-79
2023/04/03 05:53:18;;;;;;;7.90;4.70;;;;;;;-0.74;100.00;103104.16;4955450;28;20031;-79
2023/04/03 05:55:44;;;;;;;10.80;4.57;;;;;;;-0.69;100.00;103116.34;4957255;28;20023;-79
2023/04/03 05:58:09;;;;;;;6.22;4.25;;;;;;;-0.72;100.00;103101.69;4956862;28;20107;-79
2023/04/03 06:00:35;;;;;;;11.65;4.35;;;;;;;-0.57;100.00;103110.28;4956698;28;20171;-79
2023/04/03 06:03:00;;;;;;;7.22;4.43;;;;;;;-0.55;100.00;103100.13;4957105;28;20078;-79
2023/04/03 06:05:25;;;;;;;7.38;4.10;;;;;;;-0.51;100.00;103104.63;4961054;28;20016;-79
2023/04/03 06:07:51;;;;;;;6.72;4.28;;;;;;;-0.40;100.00;103112.94;4956369;28;20079;-79
2023/04/03 06:10:17;;;;;;;10.30;4.18;;;;;;;-0.33;100.00;103110.81;4968323;28;20022;-79
2023/04/03 06:12:42;;;;;;;9.48;3.65;;;;;;;-0.30;100.00;103110.97;4958369;28;20019;-79
2023/04/03 06:15:09;;;;;;;8.18;3.55;;;;;;;-0.21;100.00;103117.44;4962476;28;20038;-79
2023/04/03 06:17:36;;;;;;;8.15;3.63;;;;;;;-0.16;100.00;103118.59;4975778;28;20105;-79
2023/04/03 06:20:02;;;;;;;11.30;3.90;;;;;;;-0.22;100.00;103101.16;4957781;28;20061;-79
2023/04/03 06:22:29;;;;;;;8.50;4.30;;;;;;;-0.07;100.00;103117.41;4956719;28;20054;-79
2023/04/03 06:24:54;;;;;;;11.23;3.65;;;;;;;0.02;100.00;103116.16;4955613;28;20483;-78
2023/04/03 06:27:20;;;;;;;7.78;3.53;;;;;;;0.10;100.00;103128.63;4956756;28;20049;-79
2023/04/03 06:29:45;;;;;;;7.47;3.90;;;;;;;0.16;100.00;103123.84;4956623;28;20024;-79
2023/04/03 06:32:10;;;;;;;6.20;3.45;;;;;;;0.21;100.00;103122.41;4961874;28;20093;-78
2023/04/03 06:34:36;;;;;;;7.90;3.30;;;;;;;0.28;100.00;103130.44;4964184;28;20035;-79
2023/04/03 06:37:02;;;;;;;9.10;3.40;;;;;;;0.25;100.00;103112.31;4956241;28;20467;-79
2023/04/03 06:39:27;;;;;;;5.28;3.08;;;;;;;0.38;100.00;103140.41;4955762;28;20046;-79
2023/04/03 06:41:52;;;;;;;6.25;3.60;;;;;;;0.36;100.00;103130.06;4958086;28;20502;-79
2023/04/03 06:44:20;;;;;;;7.40;3.30;;;;;;;0.43;100.00;103118.47;4958657;28;20023;-79
2023/04/03 06:46:46;;;;;;;8.05;3.22;;;;;;;0.51;100.00;103118.88;4953636;28;20391;-79
2023/04/03 06:49:12;;;;;;;8.43;3.80;;;;;;;0.60;100.00;103117.69;4962713;28;20078;-79
2023/04/03 06:51:38;;;;;;;6.22;3.60;;;;;;;0.68;100.00;103133.47;4963310;28;20078;-79
2023/04/03 06:54:05;;;;;;;5.25;3.22;;;;;;;0.69;100.00;103122.44;4955890;28;20031;-78
2023/04/03 06:56:31;;;;;;;11.98;3.80;;;;;;;0.83;100.00;103141.13;4959118;28;20027;-78
2023/04/03 06:58:59;;;;;;;9.40;3.03;;;;;;;0.86;100.00;103136.16;4962653;28;20053;-79
2023/04/03 07:01:27;;;;;;;6.68;2.83;;;;;;;0.87;100.00;103131.09;4955507;28;20110;-79
2023/04/03 07:03:53;;;;;;;6.13;3.20;;;;;;;0.98;100.00;103139.38;4955640;28;20042;-79
2023/04/03 07:06:20;;;;;;;5.72;3.33;;;;;;;1.03;100.00;103144.75;4954894;28;20479;-78
2023/04/03 07:08:47;;;;;;;5.63;2.80;;;;;;;1.09;100.00;103142.50;4958796;28;20490;-78
2023/04/03 07:11:13;;;;;;;6.72;3.05;;;;;;;1.12;100.00;103129.81;4957091;28;20042;-78
2023/04/03 07:13:38;;;;;;;4.80;2.92;;;;;;;1.17;100.00;103129.25;4954556;28;20050;-78
2023/04/03 07:16:05;;;;;;;7.05;3.22;;;;;;;1.31;100.00;103139.38;4969854;28;20442;-78
2023/04/03 07:18:31;;;;;;;9.52;3.20;;;;;;;1.29;100.00;103134.13;4954709;28;20054;-78
2023/04/03 07:20:56;;;;;;;6.43;2.95;;;;;;;1.38;100.00;103144.00;4956088;28;20055;-78
2023/04/03 07:23:23;;;;;;;6.93;3.17;;;;;;;1.45;100.00;103138.38;4955038;28;20415;-78
2023/04/03 07:25:49;;;;;;;4.50;2.90;;;;;;;1.52;100.00;103148.16;4958996;28;20386;-78
2023/04/03 07:28:17;;;;;;;8.48;3.20;;;;;;;1.60;100.00;103151.09;4953489;28;20059;-78
2023/04/03 07:30:44;;;;;;;5.60;3.22;;;;;;;1.60;100.00;103145.97;4955273;28;20182;-78
2023/04/03 07:33:10;;;;;;;4.35;3.08;;;;;;;1.62;100.00;103141.78;4954739;28;20098;-78
2023/04/03 07:35:35;;;;;;;6.85;2.97;;;;;;;1.76;100.00;103161.34;4958791;28;20427;-78
2023/04/03 07:38:01;;;;;;;7.47;3.08;;;;;;;1.79;100.00;103166.66;4974191;28;20026;-78
2023/04/03 07:40:26;;;;;;;8.63;3.28;;;;;;;1.86;100.00;103167.84;4957000;28;20074;-78
2023/04/03 07:42:52;;;;;;;6.35;3.15;;;;;;;1.88;100.00;103166.22;4958300;28;20031;-78
2023/04/03 07:45:17;;;;;;;7.28;3.13;;;;;;;1.96;100.00;103164.03;4958742;28;20030;-78
2023/04/03 07:47:42;;;;;;;5.95;3.53;;;;;;;2.02;100.00;103161.75;4954911;28;20435;-77
2023/04/03 07:50:08;;;;;;;6.18;3.17;;;;;;;2.04;100.00;103153.31;4953263;28;20106;-78
2023/04/03 07:52:33;;;;;;;6.57;2.85;;;;;;;2.21;100.00;103172.13;4953796;28;20031;-76
2023/04/03 07:54:58;;;;;;;5.60;2.90;;;;;;;2.31;100.00;103171.75;4955220;28;20027;-77
2023/04/03 07:57:24;;;;;;;7.03;2.67;;;;;;;2.39;100.00;103163.50;4954141;28;20023;-77
2023/04/03 07:59:49;;;;;;;9.13;3.22;;;;;;;2.50;100.00;103160.63;4953256;28;20083;-77
2023/04/03 08:02:15;;;;;;;5.93;2.50;;;;;;;2.60;100.00;103166.22;4954914;28;20081;-76
2023/04/03 08:04:40;;;;;;;7.05;2.65;;;;;;;2.65;100.00;103168.22;4958395;28;20027;-77
2023/04/03 08:07:05;;;;;;;7.07;2.28;;;;;;;2.72;100.00;103171.94;4961085;28;20034;-77
2023/04/03 08:09:31;;;;;;;6.43;2.22;;;;;;;2.80;100.00;103165.44;4958366;28;20019;-76
2023/04/03 08:11:58;;;;;;;8.75;2.67;;;;;;;2.84;100.00;103169.91;4954137;28;20027;-77
2023/04/03 08:14:23;;;;;;;4.97;2.40;;;;;;;2.92;100.00;103170.28;4953814;28;20138;-78
2023/04/03 08:16:48;;;;;;;5.47;2.63;;;;;;;2.98;100.00;103168.84;4953935;28;20023;-78
2023/04/03 08:19:16;;;;;;;4.78;2.17;;;;;;;3.08;99.47;103177.00;4952857;28;20027;-78
2023/04/03 08:21:42;;;;;;;4.75;2.35;;;;;;;3.08;98.80;103162.41;4954267;28;20027;-77
2023/04/03 08:24:08;;;;;;;4.72;2.22;;;;;;;3.08;96.11;103162.41;4965600;28;20037;-78
2023/04/03 08:26:34;;;;;;;5.88;2.20;;;;;;;3.20;95.59;103175.81;4957458;28;20039;-77
2023/04/03 08:29:00;;;;;;;4.82;2.08;;;;;;;3.26;95.91;103164.91;4952101;28;20476;-77
2023/04/03 08:31:25;;;;;;;4.45;2.20;;;;;;;3.32;93.67;103161.72;4952723;28;20448;-76
2023/04/03 08:33:50;;;;;;;4.22;2.05;;;;;;;3.35;94.66;103160.16;4951656;28;20027;-77
2023/04/03 08:36:29;;;;;;;4.90;2.15;;;;;;;3.48;95.22;103166.72;4954170;28;20479;-77
2023/04/03 08:38:55;;;;;;;8.25;3.17;;;;;;;3.58;92.25;103168.00;4951527;28;20039;-77
2023/04/03 08:41:42;;;;;;;4.47;2.03;;;;;;;3.65;94.92;103164.88;4953319;28;20027;-77
2023/04/03 08:44:42;;;;;;;5.75;2.33;;;;;;;3.64;92.22;103152.78;4965656;28;20027;-78
2023/04/03 08:47:31;;;;;;;6.35;2.38;;;;;;;3.91;87.74;103177.16;4952061;28;20058;-78
2023/04/03 08:50:05;;;;;;;7.35;2.35;;;;;;;3.97;86.94;103174.81;4960685;28;20474;-78
2023/04/03 08:52:41;;;;;;;5.88;2.25;;;;;;;4.11;88.04;103182.25;4952431;28;20034;-78
2023/04/03 08:55:25;;;;;;;7.03;1.88;;;;;;;4.20;84.14;103169.72;4955681;28;20043;-78
2023/04/03 08:57:55;;;;;;;;;;;;;;;4.32;83.13;103174.50;4945556;28;20090;-77
2023/04/03 09:00:24;;;;;;;6.65;1.65;;;;;;;4.39;75.58;103168.75;4953642;28;19918;-77
2023/04/03 09:02:51;;;;;;;3.70;1.40;;;;;;;4.43;77.08;103180.94;4950137;28;20394;-78
2023/04/03 09:05:20;;;;;;;4.00;1.98;;;;;;;4.54;75.34;103174.47;4957120;28;20491;-78
2023/04/03 09:08:00;;;;;;;2.83;1.77;;;;;;;4.59;73.02;103154.00;4956339;28;20074;-77
2023/04/03 09:10:31;;;;;;;5.85;1.52;;;;;;;4.78;73.14;103171.97;4953536;28;20143;-77
2023/04/03 09:13:20;;;;;;;5.95;1.70;;;;;;;4.90;72.86;103175.03;4957640;28;20051;-77
2023/04/03 09:15:46;;;;;;;4.68;1.48;;;;;;;4.99;65.76;103173.59;4948843;28;20028;-76
2023/04/03 09:18:23;;;;;;;2.55;1.40;;;;;;;5.03;63.28;103178.03;4962334;28;20037;-77
2023/04/03 09:21:13;;;;;;;3.92;1.63;;;;;;;5.15;62.25;103178.50;4953066;28;20030;-77
2023/04/03 09:24:07;;;;;;;3.95;1.48;;;;;;;5.13;62.15;103175.88;4953408;28;20042;-77
2023/04/03 09:26:54;;;;;;;2.60;1.25;;;;;;;5.34;60.38;103187.81;4950553;28;20036;-77
2023/04/03 09:29:23;;;;;;;2.45;1.10;;;;;;;5.39;56.91;103179.38;4967213;28;20097;-77
2023/04/03 09:31:55;;;;;;;5.05;1.30;;;;;;;5.49;56.46;103187.44;4960023;28;20058;-77
2023/04/03 09:34:27;;;;;;;3.15;1.08;;;;;;;5.44;54.62;103163.13;4967171;28;20030;-77
2023/04/03 09:36:55;;;;;;;1.77;1.13;;;;;;;5.68;53.79;103195.03;4958175;28;20043;-78
2023/04/03 09:39:28;;;;;;;2.17;1.00;;;;;;;5.64;51.24;103178.50;4965697;28;20027;-77
2023/04/03 09:42:01;;;;;;;2.60;1.00;;;;;;;5.75;50.36;103175.41;4958017;28;20391;-77
2023/04/03 09:44:30;;;;;;;2.80;1.17;;;;;;;5.79;51.57;103174.69;4957385;28;20027;-77
2023/04/03 09:46:55;;;;;;;3.22;1.13;;;;;;;5.88;51.37;103167.22;4957287;28;20085;-77
2023/04/03 09:49:21;;;;;;;3.10;1.05;;;;;;;5.95;48.97;103157.97;4956318;28;20396;-77
2023/04/03 09:51:47;;;;;;;2.10;0.90;;;;;;;5.95;49.53;103160.56;4955588;28;20059;-77
2023/04/03 09:54:39;;;;;;;2.28;0.80;;;;;;;6.14;49.76;103157.72;4962540;28;20073;-77
2023/04/03 09:57:11;;;;;;;4.03;0.80;;;;;;;6.17;48.36;103150.06;4951250;28;20023;-77
2023/04/03 09:59:44;;;;;;;2.25;0.88;;;;;;;6.34;47.68;103148.00;4957048;28;20074;-77
2023/04/03 10:04:41;;;;;;;1.92;1.17;;;;;;;6.53;48.92;103146.84;4973354;28;20047;-78
2023/04/03 10:07:33;;;;;;;1.58;1.00;;;;;;;6.62;48.62;103139.34;4989455;28;20033;-77
2023/04/03 10:10:25;;;;;;;3.63;1.27;;;;;;;6.71;48.20;103142.22;4963696;28;20543;-77
2023/04/03 10:13:16;;;;;;;3.30;1.20;;;;;;;6.76;47.71;103148.41;4970039;28;20054;-78
2023/04/03 10:15:52;;;;;;;2.33;1.08;;;;;;;6.75;46.00;103156.16;4974377;28;20026;-77
2023/04/03 10:18:23;;;;;;;2.60;1.02;;;;;;;6.80;46.56;103141.59;4973524;28;20027;-82
2023/04/03 10:20:51;;;;;;;3.40;1.27;;;;;;;6.89;48.25;103144.44;4974062;28;20379;-79
2023/04/03 10:23:36;;;;;;;2.65;0.98;;;;;;;7.01;49.65;103143.94;4974428;28;20455;-77
2023/04/03 10:26:40;;;;;;;3.42;1.20;;;;;;;7.20;48.96;103138.41;4974938;28;20044;-77
2023/04/03 10:29:24;;;;;;;2.25;1.20;;;;;;;7.38;49.21;103137.13;4973187;28;20035;-77
2023/04/03 10:31:52;;;;;;;2.33;1.30;;;;;;;7.44;46.87;103124.31;4971314;28;20026;-76
2023/04/03 10:34:27;;;;;;;3.38;1.13;;;;;;;7.35;44.59;103118.88;4975106;28;20035;-76
2023/04/03 10:36:56;;;;;;;3.22;1.00;;;;;;;7.27;44.88;103113.50;4974666;28;20478;-76
2023/04/03 10:39:43;;;;;;;1.73;1.00;;;;;;;7.41;47.44;103101.75;4980911;28;20058;-77
2023/04/03 10:42:22;;;;;;;2.22;0.90;;;;;;;7.60;46.81;103113.50;4969697;28;20049;-77
2023/04/03 10:44:57;;;;;;;2.38;0.90;;;;;;;7.74;43.51;103109.50;4974047;28;20045;-77
2023/04/03 10:48:14;;;;;;;2.33;1.00;;;;;;;7.74;46.00;103099.13;4973870;28;20031;-77
2023/04/03 10:50:45;;;;;;;2.40;1.05;;;;;;;7.78;42.63;103105.28;4905771;28;20134;-77
2023/04/03 10:53:13;;;;;;;2.63;1.10;;;;;;;7.71;41.11;103103.38;4975596;28;20395;-77
2023/04/03 10:55:59;;;;;;;6.25;1.00;;;;;;;7.76;43.89;103099.19;4978288;28;20039;-77
2023/04/03 10:58:40;;;;;;;1.55;0.95;;;;;;;7.82;43.28;103091.53;4974023;28;20482;-76
2023/04/03 11:01:25;;;;;;;2.00;0.90;;;;;;;7.84;43.31;103069.06;4961160;28;20030;-76
2023/04/03 11:03:57;;;;;;;2.75;0.98;;;;;;;7.94;40.75;103090.94;4959079;28;20055;-76
2023/04/03 11:06:26;;;;;;;3.85;1.02;;;;;;;8.06;42.25;103096.41;4952722;28;20031;-76
2023/04/03 11:08:59;;;;;;;2.67;0.93;;;;;;;8.09;40.55;103086.09;4949965;28;20122;-76
2023/04/03 11:11:29;;;;;;;1.13;0.80;;;;;;;8.16;41.11;103071.53;4943110;28;20038;-77
2023/04/03 11:14:05;;;;;;;2.35;1.60;;;;;;;8.28;40.73;103068.31;4953717;28;20062;-76
2023/04/03 11:16:56;;;;;;;1.55;1.10;;;;;;;8.44;41.52;103088.63;4952577;28;20082;-76
2023/04/03 11:19:46;;;;;;;2.55;0.82;;;;;;;8.55;40.13;103081.94;4915200;29;20043;-76
2023/04/03 11:22:23;;;;;;;1.55;1.05;;;;;;;8.64;41.89;103076.06;4939487;28;20043;-76
2023/04/03 11:24:58;;;;;;;2.72;0.98;;;;;;;8.69;39.95;103074.41;4953926;28;20031;-76
2023/04/03 11:27:25;;;;;;;2.15;1.00;;;;;;;8.77;39.50;103070.25;4953174;28;20031;-76
2023/04/03 11:29:53;;;;;;;1.38;0.80;;;;;;;8.79;38.93;103075.47;4954297;28;20122;-76